createdAt,value
2022-12-13T19:37:09.345Z,93.90
2022-12-13T19:39:37.550Z,94.30
2022-12-13T19:42:05.547Z,94.40
2022-12-13T19:44:33.399Z,94.60
2022-12-13T19:47:01.305Z,94.70
2022-12-13T19:49:29.681Z,94.40
2022-12-13T19:51:57.595Z,94.40
2022-12-13T19:54:28.193Z,94.40
2022-12-13T19:56:56.058Z,94.20
2022-12-13T19:59:23.893Z,94.00
2022-12-13T20:01:51.801Z,93.70
2022-12-13T20:04:19.752Z,93.70
2022-12-13T20:06:47.639Z,93.70
2022-12-13T20:09:15.540Z,93.60
2022-12-13T20:11:44.808Z,93.70
2022-12-13T20:14:12.666Z,93.70
2022-12-13T20:16:41.704Z,93.50
2022-12-13T20:19:11.091Z,93.30
2022-12-13T20:21:38.945Z,93.50
2022-12-13T20:24:07.500Z,93.80
2022-12-13T20:26:35.361Z,93.60
2022-12-13T20:29:05.443Z,94.00
2022-12-13T20:31:35.016Z,93.70
2022-12-13T20:34:04.983Z,93.90
2022-12-13T20:36:32.896Z,94.00
2022-12-13T20:39:02.173Z,94.00
2022-12-13T20:41:31.493Z,93.60
2022-12-13T20:44:00.918Z,93.70
2022-12-13T20:46:31.341Z,93.80
2022-12-13T20:49:02.089Z,93.10
2022-12-13T20:51:31.709Z,93.50
2022-12-13T20:53:59.832Z,93.60
2022-12-13T20:56:29.058Z,93.40
2022-12-13T20:58:57.263Z,93.30
2022-12-13T21:01:27.455Z,93.60
2022-12-13T21:04:00.005Z,93.60
2022-12-13T21:06:28.299Z,93.30
2022-12-13T21:09:02.303Z,93.30
2022-12-13T21:11:32.206Z,93.20
2022-12-13T21:14:07.421Z,93.10
2022-12-13T21:16:39.931Z,93.30
2022-12-13T21:19:10.502Z,93.00
2022-12-13T21:21:38.730Z,93.10
2022-12-13T21:24:07.394Z,93.20
2022-12-13T21:26:36.458Z,93.20
2022-12-13T21:29:07.569Z,93.00
2022-12-13T21:31:36.679Z,93.00
2022-12-13T21:34:06.337Z,93.20
2022-12-13T21:36:37.807Z,93.30
2022-12-13T21:39:07.796Z,93.30
2022-12-13T21:41:35.648Z,93.40
2022-12-13T21:44:03.506Z,93.40
2022-12-13T21:47:09.759Z,93.30
2022-12-13T21:49:19.400Z,93.50
2022-12-13T21:51:48.804Z,93.40
2022-12-13T21:54:17.664Z,93.60
2022-12-13T21:57:02.948Z,93.80
2022-12-13T21:59:30.874Z,93.50
2022-12-13T22:02:15.972Z,93.30
2022-12-13T22:04:46.017Z,93.50
2022-12-13T22:07:17.819Z,93.70
2022-12-13T22:09:46.297Z,93.70
2022-12-13T22:12:20.807Z,93.60
2022-12-13T22:14:49.209Z,93.50
2022-12-13T22:17:17.355Z,93.30
2022-12-13T22:19:48.631Z,92.90
2022-12-13T22:22:18.983Z,93.30
2022-12-13T22:24:52.855Z,93.10
2022-12-13T22:27:23.711Z,93.50
2022-12-13T22:29:53.069Z,93.50
2022-12-13T22:32:21.120Z,93.50
2022-12-13T22:34:49.074Z,93.30
2022-12-13T22:37:18.374Z,93.50
2022-12-13T22:39:46.326Z,93.40
2022-12-13T22:42:14.257Z,93.30
2022-12-13T22:44:42.114Z,93.20
2022-12-13T22:47:10.026Z,93.30
2022-12-13T22:49:38.029Z,93.20
2022-12-13T22:52:06.281Z,93.40
2022-12-13T22:54:35.774Z,93.40
2022-12-13T22:57:03.668Z,93.20
2022-12-13T22:59:33.016Z,93.50
2022-12-13T23:02:02.884Z,93.70
2022-12-13T23:04:31.620Z,93.50
2022-12-13T23:06:59.566Z,93.40
2022-12-13T23:09:27.734Z,93.40
2022-12-13T23:12:14.420Z,93.20
2022-12-13T23:14:51.296Z,93.70
2022-12-13T23:17:19.189Z,93.60
2022-12-13T23:19:50.057Z,93.40
2022-12-13T23:22:21.098Z,93.60
2022-12-13T23:24:49.734Z,93.60
2022-12-13T23:27:19.523Z,93.70
2022-12-13T23:29:47.429Z,93.70
2022-12-13T23:32:15.409Z,93.90
2022-12-13T23:34:43.326Z,93.30
2022-12-13T23:37:11.484Z,93.30
2022-12-13T23:39:39.400Z,93.40
2022-12-13T23:42:07.261Z,93.30
2022-12-13T23:44:36.896Z,93.50
